Leonore, Illinois
Current Conditions -  °F | °C
As of 9:15 PM on Saturday 20 Dec 2014 (Local Time) from KVYS Reporting Station
Overcast Overcast  
Wind Chill: -3°   Ceiling: 4000
Heat Index:   Visibility: 7mi
Dew Point: -1°   Wind: 7mph
Humidity: 90%   Direction: 150°SSE
Pressure: 30.24"   Gusts: NA
Location:  41.19°N, 88.98°W
Report Text: KVYS 210315Z AUTO 15006KT 7SM SCT020 SCT025 OVC040 01/M01 A3024 RMK AO2 T00051010
Loading
Personal Weather Stations






























Interactive Weather Map New forecast layout! Learn more

10-Day Weather Forecast

Advertisements
Track Severe Weather on mobile